Skip Navigation Links
NOAA logo - Click to go to the NOAA homepage
NOAA's National Weather Service
Alaska Aviation Weather Unit
  NWS logo - Click to go to the NWS homepage
Left Navbar Graphic     21 AKDT = 05 GMT

   
NOAA is celebrating 200 years of science, service, and stewardship. Visit the NOAA 200th celebration Web site to learn more.
USA.gov is the U.S. Government's official Web portal to all Federal, state and local government Web resources and services.
Facebook
NWS on Facebook

AAWU Home :: Display TAF Add Bookmark
TAF PAEI 270415Z 2704/2810 VRB06KT 9999 FEW050 FEW100 OVC200
      QNH2948INS
      BECMG 2709/2710 VRB06KT 9999 BKN060 610604 QNH2950INS
      TEMPO 2712/2721 VCSH SCT030 BKN060 OVC100 610604 TX11/2704Z
      TNM02/2714Z=
METAR PAEI 270058Z 24004KT 10SM FEW050 FEW100 BKN200 11/M02 A2951=

METAR PAEI 270158Z 29005KT 10SM FEW050 FEW100 BKN200 11/M02 A2951=

METAR PAEI 270258Z 26005KT 10SM FEW050 FEW100 OVC200 11/M02 A2951=

METAR PAEI 270358Z 29007KT 10SM FEW050 FEW100 OVC200 11/M02 A2952=


NOAA's National Weather Service
Alaska Aviation Weather Unit
6930 Sand Lake Road
Anchorage, AK 99502-1845
Disclaimer
Credits
Glossary
Privacy Policy
About Us
Career Opportunities
Contact AAWU Internet Services Site last modified: April, 17th 2012